createdAt,value
2022-10-16T00:01:25.203Z,2.93
2022-10-16T00:03:52.363Z,2.90
2022-10-16T00:06:21.087Z,3.40
2022-10-16T00:08:49.135Z,1.83
2022-10-16T00:11:21.862Z,6.10
2022-10-16T00:13:49.998Z,5.40
2022-10-16T00:16:16.942Z,4.87
2022-10-16T00:18:44.009Z,2.07
2022-10-16T00:21:14.008Z,6.83
2022-10-16T00:23:40.631Z,2.27
2022-10-16T00:26:11.725Z,1.40
2022-10-16T00:28:38.922Z,7.83
2022-10-16T00:31:10.593Z,2.20
2022-10-16T00:33:38.902Z,1.27
2022-10-16T00:36:08.165Z,0.90
2022-10-16T00:38:34.950Z,4.63
2022-10-16T00:41:01.853Z,1.70
2022-10-16T00:43:39.875Z,1.53
2022-10-16T00:46:12.407Z,1.30
2022-10-16T00:48:39.249Z,2.37
2022-10-16T00:51:07.951Z,2.20
2022-10-16T00:53:35.776Z,5.23
2022-10-16T00:56:03.109Z,4.40
2022-10-16T00:58:30.034Z,1.83
2022-10-16T01:00:56.646Z,2.93
2022-10-16T01:03:35.592Z,6.03
2022-10-16T01:09:11.941Z,3.47
2022-10-16T01:12:10.096Z,2.30
2022-10-16T01:14:41.835Z,2.57
2022-10-16T01:17:32.381Z,4.60
2022-10-16T01:20:06.062Z,2.80
2022-10-16T01:22:42.129Z,3.77
2022-10-16T01:25:22.958Z,2.07
2022-10-16T01:27:50.117Z,2.00
2022-10-16T01:30:29.378Z,2.97
2022-10-16T01:33:04.923Z,3.43
2022-10-16T01:35:37.064Z,3.17
2022-10-16T01:38:15.884Z,1.30
2022-10-16T01:40:48.437Z,4.73
2022-10-16T01:43:47.837Z,3.23
2022-10-16T01:46:17.784Z,1.23
2022-10-16T01:48:44.332Z,2.17
2022-10-16T01:51:15.160Z,2.97
2022-10-16T01:53:44.134Z,6.30
2022-10-16T01:56:13.175Z,1.93
2022-10-16T01:58:46.623Z,3.57
2022-10-16T02:03:53.209Z,1.77
2022-10-16T02:06:20.566Z,2.30
2022-10-16T02:08:47.694Z,2.03
2022-10-16T02:11:14.293Z,1.90
2022-10-16T02:13:51.945Z,1.50
2022-10-16T02:16:18.757Z,3.30
2022-10-16T02:18:45.814Z,7.13
2022-10-16T02:21:25.013Z,1.60
2022-10-16T02:23:55.741Z,2.43
2022-10-16T02:26:52.005Z,2.03
2022-10-16T02:29:23.970Z,4.07
2022-10-16T02:31:56.294Z,5.90
2022-10-16T02:34:25.706Z,0.83
2022-10-16T02:36:53.406Z,1.60
2022-10-16T02:39:21.291Z,1.70
2022-10-16T02:41:48.884Z,3.27
2022-10-16T02:44:15.429Z,1.37
2022-10-16T02:46:41.958Z,5.93
2022-10-16T02:49:08.498Z,1.63
2022-10-16T02:51:35.019Z,5.53
2022-10-16T02:54:02.954Z,3.83
2022-10-16T02:56:30.551Z,2.30
2022-10-16T02:58:57.235Z,0.80
2022-10-16T03:01:24.989Z,5.87
2022-10-16T03:03:51.661Z,3.27
2022-10-16T03:06:18.338Z,3.03
2022-10-16T03:08:44.910Z,1.30
2022-10-16T03:11:11.475Z,0.97
2022-10-16T03:13:38.042Z,1.03
2022-10-16T03:16:04.792Z,1.00
2022-10-16T03:18:31.341Z,6.90
2022-10-16T03:20:57.906Z,1.60
2022-10-16T03:23:24.475Z,1.50
2022-10-16T03:25:51.062Z,3.17
2022-10-16T03:28:17.595Z,1.53
2022-10-16T03:30:44.787Z,2.13
2022-10-16T03:33:11.392Z,1.60
2022-10-16T03:35:38.050Z,1.60
2022-10-16T03:38:04.713Z,4.70
2022-10-16T03:40:33.297Z,1.27
2022-10-16T03:43:00.204Z,2.33
2022-10-16T03:45:27.855Z,2.83
2022-10-16T03:47:54.388Z,1.50
2022-10-16T03:50:20.987Z,1.60
2022-10-16T03:52:47.522Z,1.27
2022-10-16T03:55:14.183Z,1.57
2022-10-16T03:57:40.731Z,2.27
2022-10-16T04:00:07.791Z,1.80
2022-10-16T04:02:34.441Z,5.50
2022-10-16T04:05:01.074Z,2.97
2022-10-16T04:07:28.059Z,1.60
2022-10-16T04:09:54.853Z,3.40
2022-10-16T04:12:21.385Z,3.63
2022-10-16T04:14:47.997Z,1.67
2022-10-16T04:17:14.676Z,2.07
2022-10-16T04:19:41.207Z,5.57
2022-10-16T04:22:07.798Z,2.10
2022-10-16T04:24:34.506Z,5.73
2022-10-16T04:27:01.099Z,4.13
2022-10-16T04:29:27.642Z,5.37
2022-10-16T04:31:54.185Z,3.17
2022-10-16T04:34:21.252Z,1.27
2022-10-16T04:36:51.081Z,3.70
2022-10-16T04:39:17.873Z,1.43
2022-10-16T04:41:44.659Z,2.60
2022-10-16T04:44:11.195Z,3.80
2022-10-16T04:46:37.735Z,2.13
2022-10-16T04:49:04.538Z,2.27
2022-10-16T04:51:31.081Z,2.77
2022-10-16T04:53:57.801Z,8.00
2022-10-16T04:56:25.193Z,6.63
2022-10-16T04:58:51.725Z,3.47
2022-10-16T05:01:18.279Z,4.73
2022-10-16T05:03:44.916Z,4.87
2022-10-16T05:06:11.453Z,3.40
2022-10-16T05:08:38.009Z,2.47
2022-10-16T05:11:04.773Z,5.70
2022-10-16T05:13:31.548Z,4.30
2022-10-16T05:15:58.159Z,6.73
2022-10-16T05:18:24.747Z,7.00
2022-10-16T05:20:51.265Z,3.07
2022-10-16T05:23:18.050Z,3.80
2022-10-16T05:25:44.595Z,4.47
2022-10-16T05:28:11.165Z,5.27
2022-10-16T05:30:38.537Z,3.33
2022-10-16T05:33:05.270Z,3.17
2022-10-16T05:35:31.878Z,5.70
2022-10-16T05:37:58.455Z,4.27
2022-10-16T05:40:25.087Z,3.87
2022-10-16T05:42:56.180Z,6.77
2022-10-16T05:45:22.781Z,3.70
2022-10-16T05:47:49.302Z,6.80
2022-10-16T05:50:15.835Z,3.40
2022-10-16T05:52:42.424Z,4.03
2022-10-16T05:55:09.247Z,3.13
2022-10-16T05:57:35.778Z,2.70
2022-10-16T06:00:02.390Z,3.73
2022-10-16T06:02:29.137Z,2.43
2022-10-16T06:04:55.735Z,4.70
2022-10-16T06:07:23.515Z,4.03
2022-10-16T06:09:51.696Z,4.57
2022-10-16T06:12:18.416Z,2.90
2022-10-16T06:14:46.026Z,4.70
2022-10-16T06:17:12.566Z,4.43
2022-10-16T06:19:39.097Z,8.53
2022-10-16T06:22:05.632Z,3.17
2022-10-16T06:24:32.186Z,2.97
2022-10-16T06:26:59.026Z,6.33
2022-10-16T06:29:25.566Z,3.23
2022-10-16T06:31:52.127Z,2.67
2022-10-16T06:34:18.656Z,2.10
2022-10-16T06:36:45.263Z,4.90
2022-10-16T06:39:11.805Z,3.70
2022-10-16T06:41:39.102Z,6.07
2022-10-16T06:44:08.877Z,2.67
2022-10-16T06:46:35.803Z,5.23
2022-10-16T06:49:02.399Z,1.83
2022-10-16T06:51:29.001Z,3.97
2022-10-16T06:54:05.246Z,4.17
2022-10-16T06:56:34.458Z,5.83
2022-10-16T06:59:01.750Z,3.07
2022-10-16T07:01:29.394Z,2.53
2022-10-16T07:03:56.158Z,2.40
2022-10-16T07:06:24.728Z,3.37
2022-10-16T07:08:52.011Z,2.87
2022-10-16T07:11:21.531Z,7.73
2022-10-16T07:13:52.682Z,4.43
2022-10-16T07:16:24.125Z,4.47
2022-10-16T07:18:55.081Z,2.87
2022-10-16T07:21:23.369Z,3.73
2022-10-16T07:23:55.153Z,4.50
2022-10-16T07:26:22.507Z,3.97
2022-10-16T07:28:49.468Z,3.93
2022-10-16T07:31:18.036Z,4.27
2022-10-16T07:33:46.090Z,3.57
2022-10-16T07:36:16.237Z,1.80
2022-10-16T07:38:43.334Z,1.47
2022-10-16T07:41:15.899Z,2.63
2022-10-16T07:43:47.974Z,2.80
2022-10-16T07:46:15.069Z,1.97
2022-10-16T07:48:41.937Z,1.63
2022-10-16T07:51:08.578Z,3.27
2022-10-16T07:53:35.248Z,1.77
2022-10-16T07:56:04.158Z,1.90
2022-10-16T07:58:31.156Z,4.17
2022-10-16T08:00:58.218Z,1.93
2022-10-16T08:03:25.899Z,4.23
2022-10-16T08:05:52.641Z,4.03
2022-10-16T08:08:20.161Z,4.13
2022-10-16T08:10:47.002Z,1.33
2022-10-16T08:13:16.026Z,1.20
2022-10-16T08:15:43.748Z,2.20
2022-10-16T08:18:11.434Z,4.47
2022-10-16T08:20:38.323Z,1.20
2022-10-16T08:23:05.098Z,1.30
2022-10-16T08:25:31.793Z,6.47
2022-10-16T08:27:58.455Z,0.43
2022-10-16T08:30:25.430Z,0.83
2022-10-16T08:32:53.560Z,1.43
2022-10-16T08:35:20.183Z,0.97
2022-10-16T08:37:46.797Z,1.53
2022-10-16T08:40:35.287Z,2.03
2022-10-16T08:43:07.702Z,3.57
2022-10-16T08:46:08.176Z,29.80
2022-10-16T08:48:50.133Z,4.77
2022-10-16T08:51:37.962Z,2.00
2022-10-16T08:54:22.780Z,1.17
2022-10-16T08:56:49.322Z,3.33
2022-10-16T08:59:17.908Z,2.20
2022-10-16T09:01:47.351Z,2.27
2022-10-16T09:04:45.440Z,4.30
2022-10-16T09:07:17.314Z,2.23
2022-10-16T09:10:13.745Z,6.03
2022-10-16T09:13:12.833Z,4.17
2022-10-16T09:15:47.737Z,2.20
2022-10-16T09:18:27.465Z,2.50
2022-10-16T09:21:05.383Z,1.90
2022-10-16T09:23:38.036Z,2.63
2022-10-16T09:26:06.813Z,2.10
2022-10-16T09:28:33.404Z,2.40
2022-10-16T09:30:59.988Z,3.70
2022-10-16T09:33:37.382Z,2.40
2022-10-16T09:36:06.646Z,1.77
2022-10-16T09:38:34.427Z,3.13
2022-10-16T09:41:03.832Z,2.13
2022-10-16T09:43:40.240Z,3.40
2022-10-16T09:46:09.881Z,2.13
2022-10-16T09:48:58.003Z,1.80
2022-10-16T09:51:31.875Z,3.80
2022-10-16T09:54:13.425Z,3.73
2022-10-16T09:56:40.406Z,2.97
2022-10-16T09:59:19.379Z,3.87
2022-10-16T10:01:51.815Z,7.97
2022-10-16T10:04:24.132Z,4.30
2022-10-16T10:06:56.198Z,4.00
2022-10-16T10:09:34.189Z,2.57
2022-10-16T10:14:48.216Z,2.00
2022-10-16T10:17:23.431Z,6.07
2022-10-16T10:19:59.633Z,1.23
2022-10-16T10:22:48.872Z,2.20
2022-10-16T10:25:49.763Z,4.13
2022-10-16T10:28:27.285Z,3.00
2022-10-16T10:31:04.335Z,4.80
2022-10-16T10:33:49.713Z,3.63
2022-10-16T10:36:30.294Z,3.35
2022-10-16T10:39:13.405Z,3.10
2022-10-16T10:41:53.139Z,2.85
2022-10-16T10:44:39.493Z,2.58
2022-10-16T10:47:31.656Z,3.00
2022-10-16T10:50:25.407Z,3.53
2022-10-16T10:53:00.697Z,4.35
2022-10-16T10:55:44.243Z,3.15
2022-10-16T10:58:37.587Z,4.72
2022-10-16T11:01:22.113Z,6.30
2022-10-16T11:04:17.890Z,3.63
2022-10-16T11:06:53.238Z,7.78
2022-10-16T11:09:25.373Z,5.07
2022-10-16T11:11:55.959Z,3.63
2022-10-16T11:14:41.640Z,1.30
2022-10-16T11:17:32.665Z,4.10
2022-10-16T11:20:14.341Z,4.57
2022-10-16T11:22:48.065Z,2.53
2022-10-16T11:25:27.891Z,1.85
2022-10-16T11:28:12.498Z,3.50
2022-10-16T11:30:51.237Z,2.33
2022-10-16T11:33:44.708Z,3.65
2022-10-16T11:36:26.901Z,3.35
2022-10-16T11:39:07.990Z,1.75
2022-10-16T11:41:44.541Z,4.47
2022-10-16T11:44:31.344Z,2.63
2022-10-16T11:50:18.479Z,4.00
2022-10-16T11:52:48.090Z,1.35
2022-10-16T11:55:44.556Z,3.47
2022-10-16T11:58:35.411Z,3.63
2022-10-16T12:01:17.390Z,3.88
2022-10-16T12:03:56.508Z,3.05
2022-10-16T12:06:24.747Z,2.75
2022-10-16T12:08:53.110Z,4.57
2022-10-16T12:11:28.926Z,2.78
2022-10-16T12:14:14.033Z,4.15
2022-10-16T12:17:00.608Z,3.47
2022-10-16T12:19:29.910Z,1.85
2022-10-16T12:22:02.181Z,2.63
2022-10-16T12:24:31.576Z,6.88
2022-10-16T12:26:58.321Z,3.30
2022-10-16T12:29:31.195Z,2.15
2022-10-16T12:31:58.548Z,4.03
2022-10-16T12:34:51.918Z,3.55
2022-10-16T12:37:27.435Z,3.10
2022-10-16T12:39:56.541Z,1.85
2022-10-16T12:42:29.524Z,3.70
2022-10-16T12:44:56.897Z,2.63
2022-10-16T12:47:30.794Z,1.98
2022-10-16T12:49:57.743Z,2.72
2022-10-16T12:52:36.592Z,3.47
2022-10-16T12:55:03.379Z,2.47
2022-10-16T12:57:51.606Z,2.22
2022-10-16T13:00:23.552Z,2.83
2022-10-16T13:03:12.778Z,0.98
2022-10-16T13:06:06.221Z,1.95
2022-10-16T13:08:54.473Z,2.03
2022-10-16T13:11:48.821Z,2.40
2022-10-16T13:14:31.811Z,2.20
2022-10-16T13:17:21.133Z,2.45
2022-10-16T13:20:20.023Z,3.00
2022-10-16T13:23:01.929Z,2.33
2022-10-16T13:25:46.449Z,2.83
2022-10-16T13:28:14.345Z,3.05
2022-10-16T13:30:51.834Z,1.90
2022-10-16T13:33:40.937Z,1.65
2022-10-16T13:36:08.011Z,2.95
2022-10-16T13:38:37.067Z,1.83
2022-10-16T13:41:15.837Z,1.65
2022-10-16T13:43:46.490Z,3.13
2022-10-16T13:46:16.351Z,0.65
2022-10-16T13:48:43.739Z,3.65
2022-10-16T13:51:19.002Z,1.45
2022-10-16T13:53:46.698Z,3.25
2022-10-16T13:56:20.089Z,1.70
2022-10-16T13:58:48.282Z,1.25
2022-10-16T14:01:21.787Z,2.83
2022-10-16T14:03:49.186Z,3.08
2022-10-16T14:06:19.318Z,1.75
2022-10-16T14:08:49.149Z,1.77
2022-10-16T14:11:24.416Z,1.98
2022-10-16T14:13:51.825Z,1.52
2022-10-16T14:16:30.950Z,1.33
2022-10-16T14:19:03.590Z,1.65
2022-10-16T14:21:30.644Z,3.17
2022-10-16T14:23:57.395Z,0.30
2022-10-16T14:26:27.028Z,1.00
2022-10-16T14:29:12.421Z,1.98
2022-10-16T14:31:40.592Z,0.68
2022-10-16T14:34:28.505Z,1.77
2022-10-16T14:39:41.050Z,3.90
2022-10-16T14:42:17.010Z,2.83
2022-10-16T14:44:43.694Z,1.67
2022-10-16T14:47:16.627Z,2.47
2022-10-16T14:49:43.491Z,2.72
2022-10-16T14:52:12.936Z,2.88
2022-10-16T14:54:39.829Z,3.88
2022-10-16T14:57:06.843Z,6.28
2022-10-16T14:59:39.258Z,2.58
2022-10-16T15:02:30.516Z,3.10
2022-10-16T15:04:57.768Z,2.85
2022-10-16T15:07:25.062Z,2.00
2022-10-16T15:09:51.803Z,3.35
2022-10-16T15:12:18.462Z,5.05
2022-10-16T15:14:45.175Z,3.00
2022-10-16T15:17:12.370Z,4.00
2022-10-16T15:19:39.135Z,2.10
2022-10-16T15:22:05.953Z,6.17
2022-10-16T15:24:32.508Z,2.30
2022-10-16T15:26:59.076Z,5.45
2022-10-16T15:29:25.623Z,2.80
2022-10-16T15:31:52.475Z,2.80
2022-10-16T15:34:20.402Z,3.10
2022-10-16T15:36:46.997Z,3.33
2022-10-16T15:39:15.891Z,13.23
2022-10-16T15:41:43.488Z,4.00
2022-10-16T15:44:10.067Z,7.23
2022-10-16T15:46:38.080Z,2.70
2022-10-16T15:49:05.002Z,5.73
2022-10-16T15:51:33.754Z,1.83
2022-10-16T15:54:02.869Z,1.80
2022-10-16T15:56:29.872Z,2.23
2022-10-16T15:58:58.023Z,4.10
2022-10-16T16:01:24.624Z,2.77
2022-10-16T16:03:54.860Z,3.60
2022-10-16T16:06:23.731Z,5.20
2022-10-16T16:08:51.325Z,6.30
2022-10-16T16:11:18.521Z,3.27
2022-10-16T16:13:45.212Z,2.73
2022-10-16T16:16:16.620Z,4.40
2022-10-16T16:18:44.332Z,4.40
2022-10-16T16:21:12.340Z,3.00
2022-10-16T16:23:39.133Z,3.03
2022-10-16T16:26:08.572Z,3.30
2022-10-16T16:28:38.880Z,6.10
2022-10-16T16:31:05.706Z,2.40
2022-10-16T16:33:32.959Z,3.37
2022-10-16T16:36:01.119Z,3.20
2022-10-16T16:38:28.559Z,2.40
2022-10-16T16:40:56.444Z,6.37
2022-10-16T16:43:27.610Z,5.80
2022-10-16T16:45:54.798Z,3.10
2022-10-16T16:48:22.620Z,10.33
2022-10-16T16:50:49.345Z,7.50
2022-10-16T16:53:16.580Z,4.13
2022-10-16T16:55:43.312Z,6.97
2022-10-16T16:58:10.187Z,10.70
2022-10-16T17:00:36.766Z,12.10
2022-10-16T17:03:03.866Z,20.53
2022-10-16T17:05:30.485Z,5.47
2022-10-16T17:07:57.020Z,8.17
2022-10-16T17:10:23.562Z,5.67
2022-10-16T17:12:50.216Z,6.03
2022-10-16T17:15:16.975Z,5.53
2022-10-16T17:17:43.593Z,3.30
2022-10-16T17:20:11.258Z,5.17
2022-10-16T17:22:37.787Z,3.07
2022-10-16T17:25:04.697Z,3.93
2022-10-16T17:27:31.286Z,3.13
2022-10-16T17:29:57.851Z,7.37
2022-10-16T17:32:24.709Z,8.80
2022-10-16T17:34:51.523Z,2.57
2022-10-16T17:37:18.382Z,5.53
2022-10-16T17:39:45.135Z,14.30
2022-10-16T17:42:11.707Z,18.37
2022-10-16T17:44:38.469Z,17.77
2022-10-16T17:47:05.269Z,20.40
2022-10-16T17:49:31.847Z,19.93
2022-10-16T17:51:59.048Z,14.93
2022-10-16T17:54:25.619Z,11.57
2022-10-16T17:56:52.331Z,4.83
2022-10-16T17:59:22.802Z,8.13
2022-10-16T18:01:52.564Z,4.50
2022-10-16T18:04:19.230Z,8.10
2022-10-16T18:06:47.279Z,3.43
2022-10-16T18:09:17.921Z,5.20
2022-10-16T18:11:44.671Z,3.87
2022-10-16T18:14:14.380Z,5.93
2022-10-16T18:16:41.054Z,3.30
2022-10-16T18:19:08.330Z,7.80
2022-10-16T18:21:34.914Z,22.27
2022-10-16T18:24:01.840Z,12.17
2022-10-16T18:26:29.018Z,10.03
2022-10-16T18:28:57.564Z,7.27
2022-10-16T18:31:26.164Z,5.53
2022-10-16T18:33:53.053Z,9.17
2022-10-16T18:36:22.846Z,4.53
2022-10-16T18:38:50.235Z,5.87
2022-10-16T18:41:17.190Z,11.43
2022-10-16T18:43:43.868Z,7.77
2022-10-16T18:46:13.266Z,16.93
2022-10-16T18:48:40.789Z,46.77
2022-10-16T18:51:14.947Z,12.93
2022-10-16T18:53:44.631Z,13.93
2022-10-16T18:56:15.009Z,8.27
2022-10-16T18:58:43.119Z,8.47
2022-10-16T19:01:16.402Z,8.77
2022-10-16T19:03:43.728Z,9.13
2022-10-16T19:06:13.157Z,7.57
2022-10-16T19:08:40.694Z,7.10
2022-10-16T19:11:17.043Z,14.70
2022-10-16T19:13:45.080Z,5.17
2022-10-16T19:16:23.667Z,9.13
2022-10-16T19:18:52.947Z,6.10
2022-10-16T19:21:20.629Z,7.87
2022-10-16T19:23:51.042Z,9.93
2022-10-16T19:26:18.970Z,6.40
2022-10-16T19:28:46.014Z,5.83
2022-10-16T19:31:18.436Z,13.80
2022-10-16T19:33:46.060Z,5.13
2022-10-16T19:36:27.149Z,11.17
2022-10-16T19:38:56.965Z,6.20
2022-10-16T19:41:25.052Z,5.30
2022-10-16T19:43:52.199Z,5.00
2022-10-16T19:46:25.738Z,7.47
2022-10-16T19:49:03.595Z,9.30
2022-10-16T19:51:30.697Z,5.23
2022-10-16T19:54:00.158Z,5.77
2022-10-16T19:56:28.845Z,5.03
2022-10-16T19:58:57.330Z,6.00
2022-10-16T20:01:25.547Z,8.93
2022-10-16T20:03:52.242Z,8.83
2022-10-16T20:06:20.085Z,9.13
2022-10-16T20:08:49.033Z,8.47
2022-10-16T20:11:18.777Z,4.93
2022-10-16T20:13:45.649Z,5.57
2022-10-16T20:16:13.728Z,6.93
2022-10-16T20:18:41.223Z,8.13
2022-10-16T20:21:22.298Z,7.10
2022-10-16T20:23:50.781Z,7.03
2022-10-16T20:26:19.970Z,5.17
2022-10-16T20:28:46.645Z,5.07
2022-10-16T20:31:22.692Z,9.40
2022-10-16T20:33:50.804Z,5.53
2022-10-16T20:36:18.411Z,8.93
2022-10-16T20:38:45.294Z,7.63
2022-10-16T20:41:12.684Z,7.43
2022-10-16T20:43:44.838Z,4.83
2022-10-16T20:46:14.189Z,6.43
2022-10-16T20:48:44.489Z,11.63
2022-10-16T20:51:17.654Z,5.90
2022-10-16T20:53:46.515Z,6.53
2022-10-16T20:56:17.286Z,6.43
2022-10-16T20:58:44.743Z,7.37
2022-10-16T21:01:17.857Z,9.20
2022-10-16T21:03:48.826Z,10.60
2022-10-16T21:06:15.410Z,7.93
2022-10-16T21:08:43.274Z,6.53
2022-10-16T21:11:11.994Z,9.10
2022-10-16T21:13:38.740Z,6.47
2022-10-16T21:16:05.950Z,9.17
2022-10-16T21:18:32.789Z,7.87
2022-10-16T21:20:59.375Z,7.53
2022-10-16T21:23:26.163Z,6.47
2022-10-16T21:25:52.899Z,8.33
2022-10-16T21:28:19.426Z,10.97
2022-10-16T21:30:45.975Z,11.17
2022-10-16T21:33:12.522Z,6.93
2022-10-16T21:35:39.123Z,11.13
2022-10-16T21:38:06.614Z,7.73
2022-10-16T21:40:34.292Z,5.83
2022-10-16T21:43:00.869Z,9.03
2022-10-16T21:45:27.422Z,7.47
2022-10-16T21:47:54.066Z,7.00
2022-10-16T21:50:20.846Z,6.43
2022-10-16T21:52:47.450Z,6.57
2022-10-16T21:55:14.081Z,5.93
2022-10-16T21:57:40.606Z,13.43
2022-10-16T22:00:09.622Z,5.97
2022-10-16T22:02:36.367Z,6.57
2022-10-16T22:05:03.281Z,6.50
2022-10-16T22:07:30.144Z,10.63
2022-10-16T22:09:57.032Z,7.40
2022-10-16T22:12:23.566Z,6.33
2022-10-16T22:14:50.102Z,6.63
2022-10-16T22:17:16.706Z,7.90
2022-10-16T22:19:43.270Z,10.50
2022-10-16T22:22:09.840Z,10.37
2022-10-16T22:24:36.966Z,11.73
2022-10-16T22:27:03.591Z,10.53
2022-10-16T22:29:30.137Z,9.50
2022-10-16T22:31:56.759Z,9.67
2022-10-16T22:34:23.356Z,10.73
2022-10-16T22:36:50.690Z,15.30
2022-10-16T22:39:18.066Z,13.80
2022-10-16T22:41:44.750Z,12.43
2022-10-16T22:44:12.872Z,15.27
2022-10-16T22:46:39.654Z,16.00
2022-10-16T22:49:06.221Z,14.23
2022-10-16T22:51:32.796Z,14.07
2022-10-16T22:53:59.397Z,13.83
2022-10-16T22:56:26.267Z,13.73
2022-10-16T22:58:53.126Z,19.03
2022-10-16T23:01:27.227Z,14.63
2022-10-16T23:03:53.993Z,17.10
2022-10-16T23:06:20.970Z,19.10
2022-10-16T23:08:52.994Z,17.87
2022-10-16T23:11:19.634Z,17.70
2022-10-16T23:13:46.647Z,20.37
2022-10-16T23:16:15.795Z,12.73
2022-10-16T23:18:43.414Z,11.03
2022-10-16T23:21:16.109Z,14.47
2022-10-16T23:23:43.483Z,12.57
2022-10-16T23:26:16.473Z,12.60
2022-10-16T23:28:43.130Z,13.00
2022-10-16T23:31:11.536Z,13.60
2022-10-16T23:33:39.139Z,15.37
2022-10-16T23:36:10.997Z,13.43
2022-10-16T23:38:38.058Z,16.03
2022-10-16T23:41:05.234Z,13.73
2022-10-16T23:43:31.911Z,21.80
2022-10-16T23:45:58.637Z,14.53
2022-10-16T23:48:25.338Z,13.13
2022-10-16T23:50:51.927Z,17.20
2022-10-16T23:53:18.682Z,17.37
2022-10-16T23:55:45.261Z,15.87
2022-10-16T23:58:11.828Z,17.13
